CCA8150 ZSPD-ZBHH
Flight info
| Callsign | CCA8150 |
|---|---|
| Flight time | 2h 33m |
| Altitude | 38100 |
| Route | POMOK G330 UNTAN G345 OLRIS R343 HFE B208 TODAM TODAM8YA |
| Aircraft | A21N/M-SDE2E3FGHIRWXY/LB1 |
Departure
| Time | 2026-05-05 07:27 |
|---|---|
| Airport | Shanghai Pudong International Airport (ZSPD) |
Arrival
| Time | 2026-05-05 10:00 |
|---|---|
| Airport | Hohhot Baita International Airport (ZBHH) |
| Time | Latitude | Longitude | Altitude | Speed | Heading |
|---|---|---|---|---|---|
| 2026-05-05 06:51 | 31.14732 | 121.80957 | 28 ft | 0 kts | 296° |
| 2026-05-05 07:12 | 31.14726 | 121.80972 | 28 ft | 4 kts | 297° |
| 2026-05-05 07:12 | 31.14713 | 121.81000 | 28 ft | 4 kts | 297° |
| 2026-05-05 07:13 | 31.14702 | 121.81025 | 28 ft | 3 kts | 297° |
| 2026-05-05 07:13 | 31.14696 | 121.81052 | 28 ft | 4 kts | 259° |
| 2026-05-05 07:13 | 31.14707 | 121.81072 | 28 ft | 4 kts | 199° |
| 2026-05-05 07:13 | 31.14731 | 121.81072 | 28 ft | 4 kts | 162° |
| 2026-05-05 07:14 | 31.14755 | 121.81063 | 28 ft | 2 kts | 162° |
| 2026-05-05 07:14 | 31.14757 | 121.81063 | 28 ft | 1 kts | 162° |
| 2026-05-05 07:16 | 31.14755 | 121.81063 | 28 ft | 1 kts | 162° |
| 2026-05-05 07:16 | 31.14736 | 121.81071 | 28 ft | 4 kts | 162° |
| 2026-05-05 07:16 | 31.14699 | 121.81085 | 28 ft | 7 kts | 162° |
| 2026-05-05 07:17 | 31.14645 | 121.81105 | 28 ft | 9 kts | 162° |
| 2026-05-05 07:17 | 31.14575 | 121.81131 | 28 ft | 12 kts | 164° |
| 2026-05-05 07:17 | 31.14510 | 121.81076 | 28 ft | 14 kts | 250° |
| 2026-05-05 07:17 | 31.14477 | 121.80957 | 28 ft | 16 kts | 252° |
| 2026-05-05 07:18 | 31.14440 | 121.80822 | 28 ft | 18 kts | 252° |
| 2026-05-05 07:18 | 31.14398 | 121.80672 | 28 ft | 20 kts | 252° |
| 2026-05-05 07:18 | 31.14352 | 121.80508 | 28 ft | 22 kts | 252° |
| 2026-05-05 07:18 | 31.14303 | 121.80330 | 28 ft | 24 kts | 252° |
| 2026-05-05 07:19 | 31.14250 | 121.80138 | 28 ft | 26 kts | 252° |
| 2026-05-05 07:19 | 31.14193 | 121.79934 | 28 ft | 27 kts | 252° |
| 2026-05-05 07:19 | 31.14160 | 121.79813 | 28 ft | 15 kts | 252° |
| 2026-05-05 07:19 | 31.14138 | 121.79735 | 28 ft | 14 kts | 252° |
| 2026-05-05 07:20 | 31.14140 | 121.79697 | 28 ft | 15 kts | 294° |
| 2026-05-05 07:20 | 31.14197 | 121.79654 | 28 ft | 16 kts | 344° |
| 2026-05-05 07:20 | 31.14481 | 121.79548 | 28 ft | 21 kts | 342° |
| 2026-05-05 07:20 | 31.14623 | 121.79494 | 28 ft | 22 kts | 342° |
| 2026-05-05 07:21 | 31.14777 | 121.79436 | 28 ft | 24 kts | 342° |
| 2026-05-05 07:21 | 31.14994 | 121.79354 | 28 ft | 23 kts | 342° |
| 2026-05-05 07:21 | 31.15044 | 121.79336 | 28 ft | 23 kts | 342° |
| 2026-05-05 07:22 | 31.15437 | 121.79187 | 28 ft | 27 kts | 342° |
| 2026-05-05 07:22 | 31.15651 | 121.79106 | 28 ft | 22 kts | 342° |
| 2026-05-05 07:22 | 31.15806 | 121.79048 | 28 ft | 24 kts | 342° |
| 2026-05-05 07:22 | 31.15960 | 121.78990 | 28 ft | 17 kts | 342° |
| 2026-05-05 07:23 | 31.16052 | 121.78955 | 28 ft | 15 kts | 342° |
| 2026-05-05 07:23 | 31.16144 | 121.78921 | 28 ft | 7 kts | 341° |
| 2026-05-05 07:23 | 31.16177 | 121.78871 | 28 ft | 10 kts | 274° |
| 2026-05-05 07:23 | 31.16157 | 121.78785 | 28 ft | 12 kts | 252° |
| 2026-05-05 07:24 | 31.16152 | 121.78767 | 29 ft | 0 kts | 252° |
| 2026-05-05 07:24 | 31.16151 | 121.78763 | 29 ft | 2 kts | 252° |
| 2026-05-05 07:25 | 31.16144 | 121.78739 | 29 ft | 4 kts | 252° |
| 2026-05-05 07:25 | 31.16132 | 121.78695 | 28 ft | 7 kts | 252° |
| 2026-05-05 07:25 | 31.16109 | 121.78638 | 28 ft | 9 kts | 223° |
| 2026-05-05 07:25 | 31.16041 | 121.78630 | 27 ft | 11 kts | 162° |
| 2026-05-05 07:26 | 31.16017 | 121.78639 | 27 ft | 0 kts | 161° |
| 2026-05-05 07:26 | 31.15957 | 121.78662 | 27 ft | 37 kts | 162° |
| 2026-05-05 07:27 | 31.15465 | 121.78849 | 27 ft | 108 kts | 161° |
| 2026-05-05 07:27 | 31.14558 | 121.79189 | 30 ft | 164 kts | 162° |
| 2026-05-05 07:27 | 31.13443 | 121.79609 | 629 ft | 162 kts | 161° |
| 2026-05-05 07:27 | 31.12395 | 121.80013 | 1448 ft | 159 kts | 165° |
| 2026-05-05 07:28 | 31.11319 | 121.80359 | 2125 ft | 163 kts | 167° |
| 2026-05-05 07:28 | 31.10183 | 121.80738 | 2712 ft | 180 kts | 167° |
| 2026-05-05 07:28 | 31.08890 | 121.81177 | 3240 ft | 210 kts | 166° |
| 2026-05-05 07:28 | 31.07377 | 121.81688 | 3734 ft | 240 kts | 165° |
| 2026-05-05 07:29 | 31.05713 | 121.82250 | 4473 ft | 255 kts | 165° |
| 2026-05-05 07:29 | 31.03964 | 121.82839 | 5238 ft | 265 kts | 165° |
| 2026-05-05 07:29 | 31.02152 | 121.83272 | 5725 ft | 269 kts | 178° |
| 2026-05-05 07:29 | 31.00345 | 121.82873 | 5914 ft | 271 kts | 205° |
| 2026-05-05 07:30 | 30.98872 | 121.81532 | 5936 ft | 271 kts | 232° |
| 2026-05-05 07:30 | 30.97503 | 121.77454 | 5930 ft | 271 kts | 252° |
| 2026-05-05 07:30 | 30.96978 | 121.75347 | 5922 ft | 272 kts | 252° |
| 2026-05-05 07:31 | 30.96441 | 121.73236 | 5918 ft | 271 kts | 253° |
| 2026-05-05 07:31 | 30.96239 | 121.71060 | 5948 ft | 273 kts | 275° |
| 2026-05-05 07:31 | 30.96601 | 121.68880 | 6751 ft | 277 kts | 282° |
| 2026-05-05 07:31 | 30.97037 | 121.66688 | 7755 ft | 278 kts | 282° |
| 2026-05-05 07:32 | 30.97470 | 121.64483 | 8814 ft | 279 kts | 282° |
| 2026-05-05 07:32 | 30.97896 | 121.62260 | 9863 ft | 282 kts | 282° |
| 2026-05-05 07:32 | 30.98326 | 121.59986 | 10567 ft | 298 kts | 282° |
| 2026-05-05 07:32 | 30.98786 | 121.57533 | 10946 ft | 323 kts | 282° |
| 2026-05-05 07:33 | 30.99278 | 121.54880 | 11279 ft | 347 kts | 282° |
| 2026-05-05 07:33 | 30.99797 | 121.52072 | 11822 ft | 359 kts | 282° |
| 2026-05-05 07:33 | 31.00324 | 121.49210 | 12621 ft | 364 kts | 282° |
| 2026-05-05 07:33 | 31.00854 | 121.46308 | 13442 ft | 368 kts | 282° |
| 2026-05-05 07:34 | 31.01394 | 121.43373 | 14193 ft | 372 kts | 282° |
| 2026-05-05 07:34 | 31.01943 | 121.40404 | 14886 ft | 376 kts | 282° |
| 2026-05-05 07:34 | 31.02494 | 121.37408 | 15571 ft | 380 kts | 282° |
| 2026-05-05 07:34 | 31.03050 | 121.34382 | 16245 ft | 383 kts | 282° |
| 2026-05-05 07:35 | 31.03610 | 121.31326 | 16898 ft | 387 kts | 282° |
| 2026-05-05 07:35 | 31.04397 | 121.28317 | 17538 ft | 392 kts | 291° |
| 2026-05-05 07:35 | 31.05691 | 121.25499 | 18150 ft | 397 kts | 302° |
| 2026-05-05 07:35 | 31.07458 | 121.22994 | 18718 ft | 402 kts | 310° |
| 2026-05-05 07:36 | 31.09369 | 121.20597 | 19281 ft | 406 kts | 311° |
| 2026-05-05 07:36 | 31.10651 | 121.18994 | 19651 ft | 408 kts | 311° |
| 2026-05-05 07:36 | 31.13275 | 121.15764 | 20388 ft | 413 kts | 315° |
| 2026-05-05 07:36 | 31.15609 | 121.13780 | 20943 ft | 420 kts | 328° |
| 2026-05-05 07:37 | 31.18297 | 121.12406 | 21504 ft | 426 kts | 340° |
| 2026-05-05 07:37 | 31.21225 | 121.11726 | 22084 ft | 433 kts | 351° |
| 2026-05-05 07:37 | 31.24248 | 121.11508 | 22672 ft | 437 kts | 355° |
| 2026-05-05 07:37 | 31.27303 | 121.11389 | 23228 ft | 440 kts | 355° |
| 2026-05-05 07:38 | 31.30334 | 121.11260 | 23732 ft | 443 kts | 355° |
| 2026-05-05 07:38 | 31.33433 | 121.11104 | 24168 ft | 447 kts | 354° |
| 2026-05-05 07:38 | 31.36560 | 121.11099 | 24594 ft | 453 kts | 360° |
| 2026-05-05 07:38 | 31.39719 | 121.11303 | 25018 ft | 456 kts | 0° |
| 2026-05-05 07:39 | 31.42894 | 121.11390 | 25446 ft | 457 kts | 354° |
| 2026-05-05 07:39 | 31.46032 | 121.10852 | 25887 ft | 455 kts | 343° |
| 2026-05-05 07:39 | 31.48062 | 121.10076 | 26172 ft | 454 kts | 335° |
| 2026-05-05 07:39 | 31.50948 | 121.08575 | 26593 ft | 455 kts | 332° |
| 2026-05-05 07:40 | 31.53827 | 121.07002 | 26983 ft | 458 kts | 332° |
| 2026-05-05 07:40 | 31.56728 | 121.05436 | 27435 ft | 459 kts | 332° |
| 2026-05-05 07:40 | 31.59594 | 121.03905 | 27952 ft | 458 kts | 332° |
| 2026-05-05 07:40 | 31.62529 | 121.02347 | 28491 ft | 457 kts | 332° |
| 2026-05-05 07:41 | 31.65420 | 121.00813 | 29018 ft | 456 kts | 332° |
| 2026-05-05 07:41 | 31.68308 | 120.99278 | 29561 ft | 455 kts | 332° |
| 2026-05-05 07:41 | 31.71187 | 120.97744 | 30112 ft | 453 kts | 332° |
| 2026-05-05 07:41 | 31.74011 | 120.96238 | 30565 ft | 451 kts | 332° |
| 2026-05-05 07:42 | 31.76866 | 120.94712 | 31016 ft | 450 kts | 332° |
| 2026-05-05 07:42 | 31.79710 | 120.93191 | 31441 ft | 449 kts | 332° |
| 2026-05-05 07:42 | 31.82551 | 120.91671 | 31838 ft | 449 kts | 332° |
| 2026-05-05 07:42 | 31.85392 | 120.90151 | 32237 ft | 448 kts | 331° |
| 2026-05-05 07:43 | 31.88231 | 120.88630 | 32627 ft | 448 kts | 331° |
| 2026-05-05 07:43 | 31.91068 | 120.87110 | 33001 ft | 448 kts | 331° |
| 2026-05-05 07:43 | 31.93906 | 120.85584 | 33376 ft | 448 kts | 330° |
| 2026-05-05 07:43 | 31.96737 | 120.84062 | 33766 ft | 447 kts | 331° |
| 2026-05-05 07:44 | 31.99559 | 120.82538 | 34124 ft | 446 kts | 331° |
| 2026-05-05 07:44 | 32.02379 | 120.81024 | 34432 ft | 445 kts | 331° |
| 2026-05-05 07:44 | 32.05202 | 120.79512 | 34733 ft | 444 kts | 331° |
| 2026-05-05 07:44 | 32.08016 | 120.78000 | 35023 ft | 444 kts | 331° |
| 2026-05-05 07:45 | 32.10763 | 120.76352 | 35297 ft | 439 kts | 324° |
| 2026-05-05 07:45 | 32.13167 | 120.74195 | 35547 ft | 432 kts | 312° |
| 2026-05-05 07:45 | 32.15107 | 120.71535 | 35794 ft | 425 kts | 301° |
| 2026-05-05 07:45 | 32.16510 | 120.68492 | 36030 ft | 420 kts | 290° |
| 2026-05-05 07:46 | 32.17342 | 120.65213 | 36260 ft | 417 kts | 279° |
| 2026-05-05 07:46 | 32.17702 | 120.61870 | 36501 ft | 415 kts | 274° |
| 2026-05-05 07:46 | 32.17959 | 120.58476 | 36755 ft | 414 kts | 274° |
| 2026-05-05 07:46 | 32.18213 | 120.55091 | 37004 ft | 414 kts | 274° |
| 2026-05-05 07:47 | 32.18477 | 120.51714 | 37252 ft | 413 kts | 274° |
| 2026-05-05 07:47 | 32.18750 | 120.48343 | 37484 ft | 412 kts | 275° |
| 2026-05-05 07:47 | 32.19028 | 120.44979 | 37714 ft | 411 kts | 275° |
| 2026-05-05 07:47 | 32.19305 | 120.41618 | 37938 ft | 411 kts | 274° |
| 2026-05-05 07:48 | 32.19581 | 120.38258 | 38082 ft | 412 kts | 275° |
| 2026-05-05 07:48 | 32.19857 | 120.34893 | 38089 ft | 411 kts | 275° |
| 2026-05-05 07:48 | 32.19694 | 120.28179 | 38059 ft | 412 kts | 258° |
| 2026-05-05 07:49 | 32.18627 | 120.24502 | 38056 ft | 415 kts | 246° |
| 2026-05-05 07:49 | 32.17302 | 120.21523 | 38057 ft | 416 kts | 244° |
| 2026-05-05 07:49 | 32.14501 | 120.15549 | 38055 ft | 416 kts | 244° |
| 2026-05-05 07:50 | 32.12182 | 120.10536 | 38053 ft | 415 kts | 244° |
| 2026-05-05 07:50 | 32.08976 | 120.03562 | 38061 ft | 416 kts | 244° |
| 2026-05-05 07:51 | 32.06215 | 119.97555 | 38055 ft | 417 kts | 244° |
| 2026-05-05 07:51 | 32.03450 | 119.91541 | 38052 ft | 417 kts | 244° |
| 2026-05-05 07:52 | 32.00733 | 119.85513 | 38055 ft | 417 kts | 244° |
| 2026-05-05 07:52 | 31.98019 | 119.79518 | 38038 ft | 418 kts | 244° |
| 2026-05-05 07:53 | 31.95283 | 119.73483 | 38058 ft | 418 kts | 244° |
| 2026-05-05 07:53 | 31.92621 | 119.67417 | 38056 ft | 417 kts | 245° |
| 2026-05-05 07:54 | 31.90010 | 119.61318 | 38049 ft | 417 kts | 246° |
| 2026-05-05 07:54 | 31.87395 | 119.55217 | 38041 ft | 417 kts | 245° |
| 2026-05-05 07:55 | 31.84772 | 119.49110 | 38046 ft | 419 kts | 246° |
| 2026-05-05 07:55 | 31.82133 | 119.42998 | 38051 ft | 419 kts | 245° |
| 2026-05-05 07:56 | 31.79489 | 119.36900 | 38047 ft | 419 kts | 245° |
| 2026-05-05 07:56 | 31.76813 | 119.30816 | 38049 ft | 419 kts | 245° |
| 2026-05-05 07:57 | 31.74129 | 119.24728 | 38051 ft | 419 kts | 245° |
| 2026-05-05 07:57 | 31.71460 | 119.18675 | 38052 ft | 421 kts | 245° |
| 2026-05-05 07:58 | 31.68763 | 119.12566 | 38046 ft | 421 kts | 245° |
| 2026-05-05 07:58 | 31.66195 | 119.06412 | 38044 ft | 418 kts | 252° |
| 2026-05-05 07:59 | 31.65281 | 118.99753 | 38039 ft | 415 kts | 272° |
| 2026-05-05 07:59 | 31.65786 | 118.92996 | 38036 ft | 416 kts | 275° |
| 2026-05-05 08:00 | 31.66332 | 118.86236 | 38036 ft | 416 kts | 275° |
| 2026-05-05 08:00 | 31.66838 | 118.79474 | 38035 ft | 416 kts | 275° |
| 2026-05-05 08:01 | 31.67338 | 118.72707 | 38035 ft | 416 kts | 275° |
| 2026-05-05 08:01 | 31.67833 | 118.65948 | 38041 ft | 416 kts | 275° |
| 2026-05-05 08:02 | 31.68332 | 118.59166 | 38043 ft | 417 kts | 275° |
| 2026-05-05 08:02 | 31.68830 | 118.52386 | 38042 ft | 417 kts | 275° |
| 2026-05-05 08:03 | 31.69319 | 118.45634 | 38046 ft | 417 kts | 275° |
| 2026-05-05 08:03 | 31.69808 | 118.38802 | 38044 ft | 417 kts | 275° |
| 2026-05-05 08:04 | 31.70284 | 118.32046 | 38039 ft | 418 kts | 275° |
| 2026-05-05 08:04 | 31.70751 | 118.25240 | 38042 ft | 418 kts | 275° |
| 2026-05-05 08:05 | 31.71229 | 118.18429 | 38044 ft | 418 kts | 275° |
| 2026-05-05 08:05 | 31.71707 | 118.11610 | 38044 ft | 419 kts | 275° |
| 2026-05-05 08:06 | 31.72195 | 118.04798 | 38040 ft | 419 kts | 276° |
| 2026-05-05 08:06 | 31.72613 | 117.99126 | 38039 ft | 419 kts | 276° |
| 2026-05-05 08:07 | 31.73112 | 117.92308 | 38025 ft | 418 kts | 275° |
| 2026-05-05 08:07 | 31.73605 | 117.85509 | 38035 ft | 418 kts | 275° |
| 2026-05-05 08:08 | 31.74090 | 117.78715 | 38033 ft | 418 kts | 275° |
| 2026-05-05 08:08 | 31.74576 | 117.71913 | 38040 ft | 418 kts | 275° |
| 2026-05-05 08:09 | 31.75061 | 117.65106 | 38036 ft | 417 kts | 275° |
| 2026-05-05 08:09 | 31.75539 | 117.58314 | 38037 ft | 417 kts | 275° |
| 2026-05-05 08:10 | 31.76013 | 117.51525 | 38032 ft | 417 kts | 275° |
| 2026-05-05 08:10 | 31.76486 | 117.44731 | 38028 ft | 418 kts | 275° |
| 2026-05-05 08:11 | 31.76957 | 117.37923 | 38023 ft | 418 kts | 276° |
| 2026-05-05 08:11 | 31.77923 | 117.31213 | 38019 ft | 417 kts | 289° |
| 2026-05-05 08:12 | 31.79130 | 117.28165 | 38018 ft | 419 kts | 300° |
| 2026-05-05 08:12 | 31.80849 | 117.25398 | 38024 ft | 421 kts | 308° |
| 2026-05-05 08:12 | 31.84678 | 117.20183 | 38022 ft | 421 kts | 309° |
| 2026-05-05 08:13 | 31.88491 | 117.14955 | 38010 ft | 421 kts | 309° |
| 2026-05-05 08:13 | 31.92278 | 117.09708 | 38008 ft | 420 kts | 309° |
| 2026-05-05 08:14 | 31.96063 | 117.04456 | 38009 ft | 421 kts | 309° |
| 2026-05-05 08:14 | 31.99850 | 116.99193 | 38005 ft | 421 kts | 309° |
| 2026-05-05 08:15 | 32.03645 | 116.93941 | 38006 ft | 421 kts | 309° |
| 2026-05-05 08:15 | 32.07412 | 116.88709 | 38008 ft | 421 kts | 309° |
| 2026-05-05 08:16 | 32.11201 | 116.83449 | 38001 ft | 420 kts | 309° |
| 2026-05-05 08:16 | 32.14984 | 116.78192 | 37990 ft | 420 kts | 309° |
| 2026-05-05 08:17 | 32.18760 | 116.72929 | 37997 ft | 420 kts | 309° |
| 2026-05-05 08:17 | 32.22472 | 116.67596 | 37997 ft | 420 kts | 308° |
| 2026-05-05 08:18 | 32.26160 | 116.62240 | 37998 ft | 420 kts | 308° |
| 2026-05-05 08:18 | 32.29861 | 116.56898 | 38005 ft | 420 kts | 309° |
| 2026-05-05 08:19 | 32.33568 | 116.51567 | 37992 ft | 418 kts | 309° |
| 2026-05-05 08:19 | 32.37244 | 116.46236 | 37989 ft | 418 kts | 309° |
| 2026-05-05 08:20 | 32.40935 | 116.40921 | 37988 ft | 418 kts | 309° |
| 2026-05-05 08:20 | 32.44599 | 116.35625 | 37985 ft | 418 kts | 309° |
| 2026-05-05 08:21 | 32.48301 | 116.30250 | 37984 ft | 418 kts | 309° |
| 2026-05-05 08:21 | 32.51979 | 116.24910 | 37979 ft | 418 kts | 309° |
| 2026-05-05 08:22 | 32.55620 | 116.19613 | 37978 ft | 417 kts | 309° |
| 2026-05-05 08:22 | 32.59337 | 116.14334 | 37981 ft | 417 kts | 310° |
| 2026-05-05 08:23 | 32.63069 | 116.09075 | 37973 ft | 417 kts | 310° |
| 2026-05-05 08:23 | 32.66804 | 116.03818 | 37984 ft | 416 kts | 310° |
| 2026-05-05 08:24 | 32.70521 | 115.98568 | 37971 ft | 415 kts | 310° |
| 2026-05-05 08:24 | 32.74241 | 115.93313 | 37967 ft | 415 kts | 311° |
| 2026-05-05 08:25 | 32.77940 | 115.88072 | 37961 ft | 413 kts | 311° |
| 2026-05-05 08:25 | 32.81635 | 115.82840 | 37965 ft | 413 kts | 311° |
| 2026-05-05 08:26 | 32.85305 | 115.77631 | 37965 ft | 413 kts | 311° |
| 2026-05-05 08:26 | 32.89015 | 115.72408 | 37959 ft | 413 kts | 312° |
| 2026-05-05 08:27 | 32.92794 | 115.67247 | 37954 ft | 413 kts | 312° |
| 2026-05-05 08:27 | 32.96563 | 115.62083 | 37940 ft | 412 kts | 312° |
| 2026-05-05 08:28 | 33.00311 | 115.56952 | 37954 ft | 410 kts | 312° |
| 2026-05-05 08:28 | 33.04056 | 115.51816 | 37955 ft | 410 kts | 312° |
| 2026-05-05 08:29 | 33.07773 | 115.46717 | 37946 ft | 410 kts | 312° |
| 2026-05-05 08:30 | 33.13375 | 115.39015 | 37943 ft | 409 kts | 312° |
| 2026-05-05 08:30 | 33.17106 | 115.33883 | 37940 ft | 409 kts | 312° |
| 2026-05-05 08:31 | 33.24802 | 115.23240 | 37934 ft | 408 kts | 312° |
| 2026-05-05 08:32 | 33.28513 | 115.18120 | 37933 ft | 408 kts | 312° |
| 2026-05-05 08:32 | 33.31593 | 115.13856 | 37925 ft | 408 kts | 312° |
| 2026-05-05 08:33 | 33.35922 | 115.07857 | 37934 ft | 407 kts | 312° |
| 2026-05-05 08:33 | 33.39613 | 115.02724 | 37930 ft | 407 kts | 312° |
| 2026-05-05 08:34 | 33.42677 | 114.98464 | 37919 ft | 405 kts | 313° |
| 2026-05-05 08:34 | 33.46335 | 114.93342 | 37921 ft | 405 kts | 313° |
| 2026-05-05 08:35 | 33.49998 | 114.88222 | 37924 ft | 405 kts | 313° |
| 2026-05-05 08:35 | 33.53658 | 114.83105 | 37921 ft | 405 kts | 313° |
| 2026-05-05 08:36 | 33.57317 | 114.77977 | 37919 ft | 405 kts | 313° |
| 2026-05-05 08:36 | 33.60993 | 114.72869 | 37913 ft | 404 kts | 313° |
| 2026-05-05 08:37 | 33.64733 | 114.67829 | 37912 ft | 404 kts | 313° |
| 2026-05-05 08:37 | 33.68801 | 114.63213 | 37916 ft | 403 kts | 322° |
| 2026-05-05 08:38 | 33.73190 | 114.59039 | 37908 ft | 402 kts | 322° |
| 2026-05-05 08:38 | 33.77571 | 114.54857 | 37908 ft | 402 kts | 322° |
| 2026-05-05 08:39 | 33.81945 | 114.50672 | 37905 ft | 402 kts | 322° |
| 2026-05-05 08:39 | 33.86311 | 114.46545 | 37903 ft | 402 kts | 323° |
| 2026-05-05 08:40 | 33.90719 | 114.42408 | 37903 ft | 402 kts | 323° |
| 2026-05-05 08:40 | 33.95125 | 114.38257 | 37886 ft | 402 kts | 323° |
| 2026-05-05 08:41 | 33.99505 | 114.34117 | 37895 ft | 400 kts | 322° |
| 2026-05-05 08:41 | 34.03881 | 114.29991 | 37903 ft | 399 kts | 323° |
| 2026-05-05 08:42 | 34.08254 | 114.25862 | 37893 ft | 399 kts | 323° |
| 2026-05-05 08:42 | 34.12622 | 114.21723 | 37892 ft | 399 kts | 322° |
| 2026-05-05 08:43 | 34.16989 | 114.17578 | 37887 ft | 399 kts | 322° |
| 2026-05-05 08:43 | 34.21357 | 114.13429 | 37888 ft | 399 kts | 322° |
| 2026-05-05 08:44 | 34.25718 | 114.09276 | 37884 ft | 399 kts | 322° |
| 2026-05-05 08:44 | 34.30083 | 114.05111 | 37886 ft | 399 kts | 322° |
| 2026-05-05 08:45 | 34.34406 | 114.00983 | 37879 ft | 399 kts | 322° |
| 2026-05-05 08:45 | 34.38756 | 113.96827 | 37879 ft | 398 kts | 322° |
| 2026-05-05 08:46 | 34.43108 | 113.92667 | 37876 ft | 399 kts | 322° |
| 2026-05-05 08:46 | 34.47454 | 113.88498 | 37856 ft | 399 kts | 322° |
| 2026-05-05 08:47 | 34.51976 | 113.84614 | 37852 ft | 399 kts | 332° |
| 2026-05-05 08:47 | 34.57236 | 113.82441 | 37864 ft | 401 kts | 343° |
| 2026-05-05 08:48 | 34.62630 | 113.80719 | 37861 ft | 401 kts | 343° |
| 2026-05-05 08:48 | 34.68018 | 113.78961 | 37863 ft | 401 kts | 343° |
| 2026-05-05 08:49 | 34.73398 | 113.77184 | 37855 ft | 401 kts | 343° |
| 2026-05-05 08:49 | 34.78783 | 113.75403 | 37856 ft | 401 kts | 343° |
| 2026-05-05 08:50 | 34.84160 | 113.73622 | 37859 ft | 400 kts | 343° |
| 2026-05-05 08:50 | 34.89445 | 113.71542 | 37856 ft | 399 kts | 339° |
| 2026-05-05 08:51 | 34.94666 | 113.69244 | 37851 ft | 399 kts | 339° |
| 2026-05-05 08:51 | 34.99884 | 113.66947 | 37851 ft | 399 kts | 339° |
| 2026-05-05 08:52 | 35.05067 | 113.64661 | 37845 ft | 399 kts | 339° |
| 2026-05-05 08:52 | 35.10287 | 113.62354 | 37849 ft | 398 kts | 339° |
| 2026-05-05 08:53 | 35.15493 | 113.60056 | 37848 ft | 398 kts | 339° |
| 2026-05-05 08:53 | 35.20704 | 113.57750 | 37846 ft | 398 kts | 339° |
| 2026-05-05 08:54 | 35.25909 | 113.55439 | 37854 ft | 398 kts | 339° |
| 2026-05-05 08:54 | 35.31115 | 113.53128 | 37852 ft | 398 kts | 339° |
| 2026-05-05 08:55 | 35.36320 | 113.50816 | 37863 ft | 398 kts | 339° |
| 2026-05-05 08:55 | 35.41520 | 113.48503 | 37873 ft | 398 kts | 338° |
| 2026-05-05 08:56 | 35.46717 | 113.46182 | 37883 ft | 398 kts | 338° |
| 2026-05-05 08:56 | 35.51942 | 113.43868 | 37892 ft | 399 kts | 339° |
| 2026-05-05 08:57 | 35.57158 | 113.41558 | 37889 ft | 397 kts | 339° |
| 2026-05-05 08:57 | 35.62324 | 113.39262 | 37903 ft | 393 kts | 339° |
| 2026-05-05 08:58 | 35.67465 | 113.36973 | 37900 ft | 393 kts | 338° |
| 2026-05-05 08:58 | 35.72610 | 113.34679 | 37905 ft | 393 kts | 338° |
| 2026-05-05 08:59 | 35.77715 | 113.32398 | 37903 ft | 393 kts | 338° |
| 2026-05-05 08:59 | 35.82858 | 113.30100 | 37908 ft | 393 kts | 338° |
| 2026-05-05 09:00 | 35.87994 | 113.27811 | 37911 ft | 391 kts | 338° |
| 2026-05-05 09:00 | 35.93102 | 113.25531 | 37908 ft | 390 kts | 338° |
| 2026-05-05 09:01 | 35.98214 | 113.23236 | 37887 ft | 391 kts | 338° |
| 2026-05-05 09:01 | 36.03330 | 113.20941 | 37888 ft | 391 kts | 338° |
| 2026-05-05 09:02 | 36.08440 | 113.18643 | 37883 ft | 391 kts | 338° |
| 2026-05-05 09:02 | 36.13551 | 113.16347 | 37885 ft | 390 kts | 338° |
| 2026-05-05 09:03 | 36.18641 | 113.14059 | 37873 ft | 389 kts | 338° |
| 2026-05-05 09:03 | 36.23744 | 113.11797 | 37873 ft | 390 kts | 340° |
| 2026-05-05 09:04 | 36.28991 | 113.10022 | 37852 ft | 391 kts | 343° |
| 2026-05-05 09:04 | 36.34226 | 113.08349 | 37858 ft | 388 kts | 343° |
| 2026-05-05 09:05 | 36.39440 | 113.06649 | 37857 ft | 387 kts | 342° |
| 2026-05-05 09:05 | 36.44643 | 113.04941 | 37854 ft | 387 kts | 342° |
| 2026-05-05 09:06 | 36.49847 | 113.03236 | 37852 ft | 387 kts | 342° |
| 2026-05-05 09:06 | 36.55055 | 113.01543 | 37849 ft | 387 kts | 342° |
| 2026-05-05 09:07 | 36.60259 | 112.99839 | 37850 ft | 387 kts | 342° |
| 2026-05-05 09:07 | 36.65463 | 112.98142 | 37843 ft | 387 kts | 343° |
| 2026-05-05 09:08 | 36.70641 | 112.96453 | 37834 ft | 387 kts | 342° |
| 2026-05-05 09:08 | 36.75844 | 112.94739 | 37832 ft | 387 kts | 342° |
| 2026-05-05 09:09 | 36.81055 | 112.93039 | 37831 ft | 387 kts | 342° |
| 2026-05-05 09:09 | 36.86249 | 112.91319 | 37833 ft | 385 kts | 342° |
| 2026-05-05 09:10 | 36.91426 | 112.89633 | 37834 ft | 385 kts | 342° |
| 2026-05-05 09:10 | 36.96604 | 112.87941 | 37831 ft | 384 kts | 342° |
| 2026-05-05 09:11 | 37.01773 | 112.86235 | 37826 ft | 384 kts | 342° |
| 2026-05-05 09:11 | 37.06951 | 112.84523 | 37810 ft | 385 kts | 342° |
| 2026-05-05 09:12 | 37.12096 | 112.82827 | 37824 ft | 381 kts | 342° |
| 2026-05-05 09:12 | 37.17218 | 112.81133 | 37804 ft | 380 kts | 342° |
| 2026-05-05 09:13 | 37.22337 | 112.79437 | 37808 ft | 381 kts | 342° |
| 2026-05-05 09:13 | 37.27454 | 112.77742 | 37790 ft | 379 kts | 342° |
| 2026-05-05 09:14 | 37.32471 | 112.76059 | 37807 ft | 374 kts | 341° |
| 2026-05-05 09:14 | 37.37506 | 112.74364 | 37794 ft | 375 kts | 342° |
| 2026-05-05 09:15 | 37.42555 | 112.72678 | 37785 ft | 376 kts | 342° |
| 2026-05-05 09:15 | 37.47606 | 112.70993 | 37780 ft | 375 kts | 341° |
| 2026-05-05 09:16 | 37.52658 | 112.69309 | 37774 ft | 376 kts | 342° |
| 2026-05-05 09:16 | 37.57706 | 112.67631 | 37786 ft | 373 kts | 341° |
| 2026-05-05 09:17 | 37.62708 | 112.65953 | 37772 ft | 372 kts | 341° |
| 2026-05-05 09:17 | 37.67725 | 112.64272 | 37771 ft | 373 kts | 341° |
| 2026-05-05 09:18 | 37.72752 | 112.62609 | 37769 ft | 373 kts | 341° |
| 2026-05-05 09:18 | 37.77834 | 112.61181 | 37768 ft | 375 kts | 345° |
| 2026-05-05 09:19 | 37.82946 | 112.59973 | 37775 ft | 371 kts | 344° |
| 2026-05-05 09:19 | 37.88015 | 112.58764 | 37769 ft | 371 kts | 344° |
| 2026-05-05 09:20 | 37.93102 | 112.57570 | 37773 ft | 372 kts | 344° |
| 2026-05-05 09:20 | 37.98187 | 112.56377 | 37775 ft | 372 kts | 345° |
| 2026-05-05 09:21 | 38.03276 | 112.55208 | 37773 ft | 372 kts | 344° |
| 2026-05-05 09:21 | 38.08380 | 112.54024 | 37772 ft | 373 kts | 344° |
| 2026-05-05 09:22 | 38.13493 | 112.52830 | 37770 ft | 373 kts | 344° |
| 2026-05-05 09:22 | 38.17738 | 112.51833 | 37777 ft | 373 kts | 344° |
| 2026-05-05 09:23 | 38.23708 | 112.50428 | 37772 ft | 373 kts | 344° |
| 2026-05-05 09:23 | 38.28783 | 112.49233 | 37775 ft | 374 kts | 343° |
| 2026-05-05 09:24 | 38.33910 | 112.48026 | 37773 ft | 375 kts | 343° |
| 2026-05-05 09:24 | 38.38213 | 112.47010 | 37761 ft | 375 kts | 343° |
| 2026-05-05 09:25 | 38.43343 | 112.45795 | 37771 ft | 375 kts | 343° |
| 2026-05-05 09:25 | 38.48455 | 112.44583 | 37792 ft | 372 kts | 342° |
| 2026-05-05 09:26 | 38.53477 | 112.43372 | 37770 ft | 368 kts | 342° |
| 2026-05-05 09:26 | 38.58502 | 112.42167 | 37769 ft | 367 kts | 342° |
| 2026-05-05 09:27 | 38.63558 | 112.40947 | 37779 ft | 370 kts | 342° |
| 2026-05-05 09:27 | 38.68619 | 112.39730 | 37784 ft | 371 kts | 342° |
| 2026-05-05 09:28 | 38.73688 | 112.38509 | 37796 ft | 371 kts | 342° |
| 2026-05-05 09:28 | 38.78746 | 112.37286 | 37793 ft | 369 kts | 342° |
| 2026-05-05 09:29 | 38.83799 | 112.36063 | 37787 ft | 370 kts | 342° |
| 2026-05-05 09:29 | 38.88868 | 112.34837 | 37786 ft | 371 kts | 342° |
| 2026-05-05 09:30 | 38.93935 | 112.33598 | 37784 ft | 371 kts | 342° |
| 2026-05-05 09:30 | 38.99002 | 112.32354 | 37792 ft | 371 kts | 342° |
| 2026-05-05 09:31 | 39.04077 | 112.31128 | 37792 ft | 371 kts | 342° |
| 2026-05-05 09:31 | 39.09152 | 112.29896 | 37789 ft | 371 kts | 342° |
| 2026-05-05 09:32 | 39.14178 | 112.28664 | 37792 ft | 371 kts | 342° |
| 2026-05-05 09:32 | 39.19247 | 112.27405 | 37792 ft | 371 kts | 341° |
| 2026-05-05 09:33 | 39.24318 | 112.26159 | 37791 ft | 371 kts | 341° |
| 2026-05-05 09:33 | 39.29397 | 112.24917 | 37782 ft | 372 kts | 341° |
| 2026-05-05 09:34 | 39.34479 | 112.23683 | 37788 ft | 369 kts | 341° |
| 2026-05-05 09:34 | 39.39453 | 112.22474 | 37792 ft | 364 kts | 341° |
| 2026-05-05 09:35 | 39.44494 | 112.21232 | 37792 ft | 371 kts | 341° |
| 2026-05-05 09:35 | 39.52239 | 112.19958 | 37783 ft | 380 kts | 349° |
| 2026-05-05 09:36 | 39.57542 | 112.19816 | 37782 ft | 381 kts | 349° |
| 2026-05-05 09:36 | 39.62848 | 112.19670 | 37792 ft | 383 kts | 349° |
| 2026-05-05 09:37 | 39.68174 | 112.19515 | 37783 ft | 383 kts | 349° |
| 2026-05-05 09:37 | 39.73453 | 112.19365 | 37779 ft | 379 kts | 349° |
| 2026-05-05 09:38 | 39.78704 | 112.19210 | 37780 ft | 379 kts | 349° |
| 2026-05-05 09:38 | 39.84011 | 112.19050 | 37788 ft | 383 kts | 349° |
| 2026-05-05 09:39 | 39.89270 | 112.18901 | 37533 ft | 373 kts | 349° |
| 2026-05-05 09:39 | 39.91895 | 112.18822 | 36488 ft | 382 kts | 349° |
| 2026-05-05 09:39 | 39.94588 | 112.18734 | 35367 ft | 393 kts | 350° |
| 2026-05-05 09:40 | 39.97346 | 112.18647 | 34442 ft | 399 kts | 351° |
| 2026-05-05 09:40 | 40.00127 | 112.18568 | 33695 ft | 401 kts | 351° |
| 2026-05-05 09:40 | 40.02928 | 112.18488 | 32940 ft | 404 kts | 351° |
| 2026-05-05 09:40 | 40.05742 | 112.18406 | 32216 ft | 405 kts | 352° |
| 2026-05-05 09:41 | 40.08567 | 112.18322 | 31490 ft | 407 kts | 352° |
| 2026-05-05 09:41 | 40.11408 | 112.18238 | 30774 ft | 409 kts | 352° |
| 2026-05-05 09:41 | 40.14260 | 112.18152 | 30077 ft | 411 kts | 352° |
| 2026-05-05 09:41 | 40.17125 | 112.18067 | 29284 ft | 414 kts | 353° |
| 2026-05-05 09:42 | 40.20020 | 112.17979 | 28390 ft | 418 kts | 353° |
| 2026-05-05 09:42 | 40.22942 | 112.17891 | 27642 ft | 426 kts | 353° |
| 2026-05-05 09:42 | 40.25987 | 112.17786 | 27221 ft | 444 kts | 353° |
| 2026-05-05 09:42 | 40.29070 | 112.17679 | 26769 ft | 441 kts | 353° |
| 2026-05-05 09:43 | 40.32121 | 112.17574 | 26036 ft | 436 kts | 354° |
| 2026-05-05 09:43 | 40.35140 | 112.17473 | 25276 ft | 433 kts | 354° |
| 2026-05-05 09:43 | 40.38132 | 112.17290 | 24529 ft | 427 kts | 350° |
| 2026-05-05 09:43 | 40.41022 | 112.16566 | 23788 ft | 419 kts | 340° |
| 2026-05-05 09:44 | 40.43778 | 112.15392 | 23066 ft | 415 kts | 337° |
| 2026-05-05 09:44 | 40.46495 | 112.14139 | 22270 ft | 414 kts | 337° |
| 2026-05-05 09:44 | 40.49179 | 112.12905 | 21510 ft | 414 kts | 337° |
| 2026-05-05 09:44 | 40.51904 | 112.11676 | 20760 ft | 414 kts | 338° |
| 2026-05-05 09:45 | 40.54621 | 112.10454 | 20054 ft | 412 kts | 338° |
| 2026-05-05 09:45 | 40.57333 | 112.09238 | 19377 ft | 411 kts | 338° |
| 2026-05-05 09:45 | 40.60029 | 112.08029 | 18719 ft | 409 kts | 338° |
| 2026-05-05 09:45 | 40.62707 | 112.06824 | 18174 ft | 402 kts | 338° |
| 2026-05-05 09:46 | 40.65281 | 112.05630 | 17684 ft | 382 kts | 337° |
| 2026-05-05 09:46 | 40.67710 | 112.04498 | 17328 ft | 360 kts | 337° |
| 2026-05-05 09:46 | 40.70007 | 112.03429 | 16988 ft | 340 kts | 337° |
| 2026-05-05 09:46 | 40.72186 | 112.02421 | 16616 ft | 325 kts | 337° |
| 2026-05-05 09:47 | 40.74275 | 112.01463 | 16190 ft | 312 kts | 338° |
| 2026-05-05 09:47 | 40.76393 | 112.00903 | 15574 ft | 313 kts | 357° |
| 2026-05-05 09:47 | 40.78525 | 112.01508 | 14890 ft | 319 kts | 23° |
| 2026-05-05 09:47 | 40.80274 | 112.03302 | 14233 ft | 324 kts | 49° |
| 2026-05-05 09:48 | 40.81315 | 112.05941 | 13604 ft | 328 kts | 71° |
| 2026-05-05 09:48 | 40.81895 | 112.08846 | 12959 ft | 326 kts | 74° |
| 2026-05-05 09:48 | 40.82437 | 112.11739 | 12312 ft | 324 kts | 74° |
| 2026-05-05 09:48 | 40.83017 | 112.14600 | 11708 ft | 323 kts | 73° |
| 2026-05-05 09:49 | 40.83630 | 112.17449 | 11282 ft | 322 kts | 73° |
| 2026-05-05 09:49 | 40.84277 | 112.20271 | 10938 ft | 319 kts | 71° |
| 2026-05-05 09:49 | 40.84947 | 112.23032 | 10717 ft | 311 kts | 71° |
| 2026-05-05 09:49 | 40.85603 | 112.25710 | 10603 ft | 302 kts | 71° |
| 2026-05-05 09:50 | 40.86239 | 112.28311 | 10459 ft | 293 kts | 72° |
| 2026-05-05 09:50 | 40.86882 | 112.30827 | 10252 ft | 286 kts | 66° |
| 2026-05-05 09:50 | 40.88030 | 112.32917 | 9907 ft | 282 kts | 35° |
| 2026-05-05 09:50 | 40.89777 | 112.33941 | 9504 ft | 274 kts | 2° |
| 2026-05-05 09:51 | 40.91608 | 112.33646 | 9148 ft | 263 kts | 335° |
| 2026-05-05 09:51 | 40.93299 | 112.32759 | 8844 ft | 260 kts | 330° |
| 2026-05-05 09:51 | 40.94731 | 112.31430 | 8637 ft | 246 kts | 305° |
| 2026-05-05 09:51 | 40.95527 | 112.29498 | 8612 ft | 239 kts | 281° |
| 2026-05-05 09:52 | 40.95583 | 112.27416 | 8611 ft | 217 kts | 256° |
| 2026-05-05 09:52 | 40.95149 | 112.25598 | 8599 ft | 198 kts | 248° |
| 2026-05-05 09:52 | 40.94688 | 112.23960 | 8476 ft | 185 kts | 249° |
| 2026-05-05 09:52 | 40.94274 | 112.22357 | 8376 ft | 184 kts | 251° |
| 2026-05-05 09:53 | 40.93883 | 112.20741 | 8314 ft | 184 kts | 251° |
| 2026-05-05 09:53 | 40.93498 | 112.19113 | 8349 ft | 187 kts | 251° |
| 2026-05-05 09:53 | 40.93116 | 112.17475 | 8339 ft | 185 kts | 251° |
| 2026-05-05 09:53 | 40.92740 | 112.15850 | 8288 ft | 186 kts | 251° |
| 2026-05-05 09:54 | 40.92363 | 112.14230 | 8147 ft | 183 kts | 251° |
| 2026-05-05 09:54 | 40.91991 | 112.12619 | 7959 ft | 186 kts | 251° |
| 2026-05-05 09:54 | 40.91620 | 112.11016 | 7739 ft | 177 kts | 250° |
| 2026-05-05 09:54 | 40.91292 | 112.09599 | 7567 ft | 143 kts | 250° |
| 2026-05-05 09:55 | 40.91018 | 112.08408 | 7320 ft | 132 kts | 251° |
| 2026-05-05 09:55 | 40.90751 | 112.07260 | 7079 ft | 130 kts | 251° |
| 2026-05-05 09:55 | 40.90489 | 112.06137 | 6832 ft | 130 kts | 251° |
| 2026-05-05 09:55 | 40.90209 | 112.04925 | 6622 ft | 142 kts | 250° |
| 2026-05-05 09:56 | 40.89921 | 112.03736 | 6486 ft | 133 kts | 249° |
| 2026-05-05 09:56 | 40.89654 | 112.02537 | 6323 ft | 137 kts | 252° |
| 2026-05-05 09:56 | 40.89372 | 112.01353 | 6168 ft | 135 kts | 250° |
| 2026-05-05 09:56 | 40.89095 | 112.00156 | 5996 ft | 135 kts | 249° |
| 2026-05-05 09:57 | 40.88812 | 111.98959 | 5822 ft | 138 kts | 250° |
| 2026-05-05 09:57 | 40.88530 | 111.97771 | 5631 ft | 132 kts | 250° |
| 2026-05-05 09:57 | 40.88256 | 111.96566 | 5326 ft | 141 kts | 251° |
| 2026-05-05 09:57 | 40.87974 | 111.95376 | 5020 ft | 130 kts | 250° |
| 2026-05-05 09:58 | 40.87713 | 111.94223 | 4750 ft | 138 kts | 255° |
| 2026-05-05 09:58 | 40.87411 | 111.93006 | 4593 ft | 133 kts | 250° |
| 2026-05-05 09:58 | 40.87083 | 111.91791 | 4504 ft | 151 kts | 253° |
| 2026-05-05 09:58 | 40.86849 | 111.90545 | 4487 ft | 132 kts | 255° |
| 2026-05-05 09:59 | 40.86629 | 111.89371 | 4253 ft | 134 kts | 253° |
| 2026-05-05 09:59 | 40.86344 | 111.88233 | 4152 ft | 129 kts | 250° |
| 2026-05-05 09:59 | 40.86019 | 111.87037 | 3957 ft | 152 kts | 256° |
| 2026-05-05 09:59 | 40.85767 | 111.85792 | 3823 ft | 134 kts | 256° |
| 2026-05-05 10:00 | 40.85483 | 111.84637 | 3609 ft | 132 kts | 253° |
| 2026-05-05 10:00 | 40.85225 | 111.83508 | 3560 ft | 118 kts | 249° |
| 2026-05-05 10:00 | 40.85017 | 111.82658 | 3553 ft | 70 kts | 252° |
| 2026-05-05 10:00 | 40.84929 | 111.82287 | 3552 ft | 29 kts | 252° |
| 2026-05-05 10:01 | 40.84893 | 111.82092 | 3553 ft | 18 kts | 278° |
| 2026-05-05 10:01 | 40.84918 | 111.81921 | 3546 ft | 20 kts | 280° |
| 2026-05-05 10:01 | 40.84985 | 111.81782 | 3540 ft | 21 kts | 346° |
| 2026-05-05 10:01 | 40.85124 | 111.81724 | 3538 ft | 18 kts | 343° |
| 2026-05-05 10:02 | 40.85211 | 111.81689 | 3537 ft | 11 kts | 343° |
| 2026-05-05 10:02 | 40.85282 | 111.81682 | 3537 ft | 9 kts | 344° |
| 2026-05-05 10:02 | 40.85323 | 111.81664 | 3537 ft | 0 kts | 342° |